Storm Events Database

Event Details

Event Thunderstorm Wind
Magnitude 50 kts.
State GEORGIA
County/Area MERIWETHER
WFO FFC
Report Source County Official
NCDC Data Source CSV
Begin Date 2007-07-20 13:43:00.0 EST-5
Begin Location 3SW WOODBURY
Begin Lat/Lon 32.95/-84.62
End Date 2007-07-20 13:45:00.0 EST-5
End Location 3SSW WOODBURY
End Lat/Lon 32.94/-84.6
Deaths Direct/Indirect 0/0 (fatality details below, when available...)
Injuries Direct/Indirect 0/0
Property Damage 0.00K
Crop Damage 0.00K
Episode Narrative An unusually strong late July cold front and northwest flow aloft combined with a moist and unstable atmosphere to produce one of the most widespread outbreaks of severe weather seen across the Peachtree City forecast area since mid-April. The was marked by a mesoscale convective complex which began early in the day across northeast Alabama and quickly spread southeast through west central and into central Georgia during the afternoon. Numerous reports of large hail were received and wind damage was widespread in the path of the convective complex.
Event Narrative The Meriwether County 911 Center reported that several trees and power lines were down in the southeast part of the county, southwest of Woodbury in the vicinity of Renolds Road and Georgia Highway 85. One tree was down blocking a road.


     ‚Äč



All events for this episode:

Location County/Zone St. Date Time T.Z. Type Mag Dth Inj PrD CrD
Totals: 0 0 2.471M 0.00K
WACO HARALSON CO. GA 07/20/2007 11:45 EST-5 Thunderstorm Wind 60 kts. MG 0 0 20.00K 0.00K
CARROLLTON CARROLL CO. GA 07/20/2007 11:58 EST-5 Lightning 0 0 100.00K 0.00K
CARROLLTON CARROLL CO. GA 07/20/2007 12:00 EST-5 Hail 0.88 in. 0 0 0.00K 0.00K
MT ZION CARROLL CO. GA 07/20/2007 12:10 EST-5 Thunderstorm Wind 52 kts. EG 0 0 750.00K 0.00K
TALLAPOOSA HARALSON CO. GA 07/20/2007 12:14 EST-5 Hail 0.75 in. 0 0 0.00K 0.00K
CARROLLTON CARROLL CO. GA 07/20/2007 12:30 EST-5 Hail 0.75 in. 0 0 0.00K 0.00K
PEACHTREE CITY FAYETTE CO. GA 07/20/2007 12:30 EST-5 Hail 0.88 in. 0 0 0.00K 0.00K
THOMAS XRDS COWETA CO. GA 07/20/2007 12:30 EST-5 Hail 1.00 in. 0 0 0.00K 0.00K
CENTRALHATCHEE HEARD CO. GA 07/20/2007 12:35 EST-5 Hail 1.00 in. 0 0 0.00K 0.00K
CENTRALHATCHEE HEARD CO. GA 07/20/2007 12:35 EST-5 Thunderstorm Wind 50 kts. EG 0 0 3.00K 0.00K
PEACHTREE CITY FAYETTE CO. GA 07/20/2007 13:00 EST-5 Lightning 0 0 800.00K 0.00K
NEWNAN COWETA CO. GA 07/20/2007 13:01 EST-5 Lightning 0 0 250.00K 0.00K
HOGANSVILLE TROUP CO. GA 07/20/2007 13:05 EST-5 Thunderstorm Wind 50 kts. EG 0 0 50.00K 0.00K
LIFSEY PIKE CO. GA 07/20/2007 13:40 EST-5 Thunderstorm Wind 50 kts. EG 0 0 3.00K 0.00K
MILNER LAMAR CO. GA 07/20/2007 13:43 EST-5 Thunderstorm Wind 50 kts. EG 0 0 3.00K 0.00K
WOODBURY MERIWETHER CO. GA 07/20/2007 13:43 EST-5 Thunderstorm Wind 50 kts. EG 0 0 0.00K 0.00K
THOMASTON UPSON CO. GA 07/20/2007 13:45 EST-5 Thunderstorm Wind 50 kts. EG 0 0 3.00K 0.00K
THOMASTON UPSON CO. GA 07/20/2007 13:55 EST-5 Lightning 0 0 2.00K 0.00K
WOODLAND TALBOT CO. GA 07/20/2007 14:00 EST-5 Thunderstorm Wind 50 kts. EG 0 0 3.00K 0.00K
FORSYTH MONROE CO. GA 07/20/2007 14:04 EST-5 Thunderstorm Wind 50 kts. EG 0 0 4.00K 0.00K
MUSELLA CRAWFORD CO. GA 07/20/2007 14:04 EST-5 Thunderstorm Wind 50 kts. EG 0 0 4.00K 0.00K
CARSONVILLE TAYLOR CO. GA 07/20/2007 14:10 EST-5 Thunderstorm Wind 50 kts. EG 0 0 4.00K 0.00K
MACON BIBB CO. GA 07/20/2007 14:25 EST-5 Thunderstorm Wind 50 kts. EG 0 0 225.00K 0.00K
CENTERVILLE HOUSTON CO. GA 07/20/2007 14:30 EST-5 Thunderstorm Wind 54 kts. MG 0 0 175.00K 0.00K
FT VLY PEACH CO. GA 07/20/2007 14:35 EST-5 Thunderstorm Wind 50 kts. EG 0 0 4.00K 0.00K
HUBER TWIGGS CO. GA 07/20/2007 14:41 EST-5 Thunderstorm Wind 50 kts. EG 0 0 4.00K 0.00K
GORDON WILKINSON CO. GA 07/20/2007 14:58 EST-5 Thunderstorm Wind 50 kts. EG 0 0 5.00K 0.00K
COLEY BLECKLEY CO. GA 07/20/2007 15:09 EST-5 Thunderstorm Wind 50 kts. EG 0 0 5.00K 0.00K
MONTROSE LAURENS CO. GA 07/20/2007 15:12 EST-5 Thunderstorm Wind 50 kts. EG 0 0 5.00K 0.00K
AMERICUS SUMTER CO. GA 07/20/2007 15:15 EST-5 Thunderstorm Wind 50 kts. EG 0 0 5.00K 0.00K
EASTMAN DODGE CO. GA 07/20/2007 15:42 EST-5 Thunderstorm Wind 50 kts. EG 0 0 2.00K 0.00K
ORIANNA TREUTLEN CO. GA 07/20/2007 15:55 EST-5 Thunderstorm Wind 50 kts. EG 0 0 4.00K 0.00K
WRIGHTSVILLE JOHNSON CO. GA 07/20/2007 16:00 EST-5 Thunderstorm Wind 50 kts. EG 0 0 2.00K 0.00K
ABBEVILLE WILCOX CO. GA 07/20/2007 16:15 EST-5 Thunderstorm Wind 50 kts. EG 0 0 25.00K 0.00K
ADRIAN EMANUEL CO. GA 07/20/2007 16:15 EST-5 Thunderstorm Wind 50 kts. EG 0 0 4.00K 0.00K
TARRYTOWN MONTGOMERY CO. GA 07/20/2007 16:15 EST-5 Thunderstorm Wind 39 kts. EG 0 0 1.00K 0.00K
JORDAN WHEELER CO. GA 07/20/2007 16:25 EST-5 Thunderstorm Wind 50 kts. EG 0 0 3.00K 0.00K
NORMANTOWN TOOMBS CO. GA 07/20/2007 16:30 EST-5 Thunderstorm Wind 50 kts. EG 0 0 3.00K 0.00K
NORRISTOWN EMANUEL CO. GA 07/20/2007 16:30 EST-5 Hail 0.75 in. 0 0 0.00K 0.00K
Totals: 0 0 2.471M 0.00K